Time;durP1;ratioP1;P1;durP2;ratioP2;P2;SDS_P1;SDS_P2;PMS_P1;PMS_P2;Temp;Humidity;BMP_temperature;BMP_pressure;BME280_temperature;BME280_humidity;BME280_pressure;Samples;Min_cycle;Max_cycle;Signal;HPM_P1;HPM_P2
2021/08/13 00:02:26;;;;;;;11.43;10.33;;;;;;;17.09;100.00;98374.50;5056010;28;20207;-69
2021/08/13 00:04:54;;;;;;;11.17;10.10;;;;;;;17.09;100.00;98370.97;5056209;28;20586;-68
2021/08/13 00:07:22;;;;;;;10.70;9.80;;;;;;;17.11;100.00;98374.28;5050015;28;20214;-68
2021/08/13 00:09:50;;;;;;;12.43;11.30;;;;;;;17.00;100.00;98375.66;5057634;28;20230;-70
2021/08/13 00:12:18;;;;;;;11.33;10.43;;;;;;;16.88;100.00;98380.72;5054931;28;20439;-70
2021/08/13 00:14:47;;;;;;;12.77;11.50;;;;;;;16.89;100.00;98374.34;5053274;28;20603;-68
2021/08/13 00:17:15;;;;;;;11.80;10.53;;;;;;;16.93;100.00;98387.13;5056378;28;20230;-69
2021/08/13 00:19:43;;;;;;;12.60;11.50;;;;;;;16.97;100.00;98379.53;5050657;28;20242;-69
2021/08/13 00:22:11;;;;;;;12.90;11.80;;;;;;;16.87;100.00;98387.09;5058400;28;20652;-70
2021/08/13 00:24:39;;;;;;;11.83;10.87;;;;;;;16.78;100.00;98376.50;5060409;28;20607;-69
2021/08/13 00:27:07;;;;;;;12.40;11.43;;;;;;;16.82;100.00;98384.16;5055874;28;20219;-68
2021/08/13 00:29:35;;;;;;;13.47;12.33;;;;;;;16.86;100.00;98383.56;5064087;28;20231;-69
2021/08/13 00:32:04;;;;;;;11.33;10.43;;;;;;;16.87;100.00;98381.72;5051820;28;20849;-69
2021/08/13 00:34:32;;;;;;;12.30;11.10;;;;;;;16.81;100.00;98377.13;5059547;28;20203;-68
2021/08/13 00:37:00;;;;;;;11.67;10.67;;;;;;;16.73;100.00;98381.63;5054857;28;20288;-70
2021/08/13 00:39:28;;;;;;;12.87;11.67;;;;;;;16.71;100.00;98385.53;5056538;28;20224;-70
2021/08/13 00:41:56;;;;;;;12.60;11.43;;;;;;;16.71;100.00;98393.56;5065285;28;20686;-69
2021/08/13 00:44:24;;;;;;;11.93;11.03;;;;;;;16.68;100.00;98394.75;5060106;28;20227;-70
2021/08/13 00:46:52;;;;;;;12.43;11.53;;;;;;;16.66;100.00;98390.59;5060500;28;20202;-69
2021/08/13 00:49:21;;;;;;;11.57;10.70;;;;;;;16.65;100.00;98389.78;5055465;28;20248;-69
2021/08/13 00:51:49;;;;;;;13.10;11.90;;;;;;;16.62;100.00;98391.00;5069517;28;20214;-70
2021/08/13 00:54:19;;;;;;;12.77;11.77;;;;;;;16.60;100.00;98395.72;5050480;28;20547;-70
2021/08/13 00:56:47;;;;;;;12.70;11.57;;;;;;;16.69;100.00;98400.94;5064205;28;20206;-70
2021/08/13 00:59:15;;;;;;;13.93;11.67;;;;;;;16.59;100.00;98403.94;5052776;28;20716;-70
2021/08/13 01:01:43;;;;;;;12.37;11.10;;;;;;;16.57;100.00;98419.38;5062559;28;20207;-70
2021/08/13 01:04:11;;;;;;;11.63;10.83;;;;;;;16.55;100.00;98421.41;5051157;28;20234;-70
2021/08/13 01:06:40;;;;;;;11.73;10.83;;;;;;;16.46;100.00;98434.88;5052363;28;20214;-69
2021/08/13 01:09:08;;;;;;;12.90;11.70;;;;;;;16.47;100.00;98435.72;5062176;28;20274;-69
2021/08/13 01:11:44;;;;;;;11.07;10.27;;;;;;;16.43;100.00;98432.59;5066228;28;20213;-69
2021/08/13 01:14:16;;;;;;;11.47;10.60;;;;;;;16.52;100.00;98425.28;5057881;28;20194;-70
2021/08/13 01:16:48;;;;;;;12.33;11.23;;;;;;;16.52;100.00;98425.28;5055046;28;20294;-69
2021/08/13 01:19:20;;;;;;;12.87;11.87;;;;;;;16.45;100.00;98422.53;5054080;28;20222;-70
2021/08/13 01:21:53;;;;;;;12.43;11.37;;;;;;;16.45;100.00;98433.25;5054919;28;20209;-69
2021/08/13 01:24:24;;;;;;;12.50;11.50;;;;;;;16.40;100.00;98424.16;5052306;28;20256;-69
2021/08/13 01:26:54;;;;;;;12.37;11.30;;;;;;;16.47;100.00;98425.03;5053127;28;20682;-70
2021/08/13 01:29:29;;;;;;;12.87;11.87;;;;;;;16.37;100.00;98432.56;5060413;28;20226;-70
2021/08/13 01:32:07;;;;;;;12.50;11.47;;;;;;;16.38;100.00;98432.34;5055328;28;20679;-70
2021/08/13 01:34:37;;;;;;;12.93;11.83;;;;;;;16.48;100.00;98443.59;5053521;28;20328;-68
2021/08/13 01:37:05;;;;;;;13.43;12.33;;;;;;;16.46;100.00;98450.13;5056013;28;20214;-70
2021/08/13 01:39:35;;;;;;;12.23;11.30;;;;;;;16.50;100.00;98454.06;5053643;28;20750;-69
2021/08/13 01:42:04;;;;;;;13.17;12.13;;;;;;;16.52;100.00;98461.94;5067129;28;20593;-68
2021/08/13 01:44:33;;;;;;;13.10;12.00;;;;;;;16.59;100.00;98457.47;5059147;28;20234;-69
2021/08/13 01:47:02;;;;;;;12.43;11.43;;;;;;;16.71;100.00;98453.25;5056292;28;20194;-69
2021/08/13 01:49:32;;;;;;;12.33;11.17;;;;;;;16.76;100.00;98445.47;5059955;28;20584;-70
2021/08/13 01:52:04;;;;;;;11.93;10.83;;;;;;;16.63;100.00;98440.81;5076863;28;20206;-70
2021/08/13 01:54:32;;;;;;;11.23;10.43;;;;;;;16.63;100.00;98440.81;5066577;28;20272;-70
2021/08/13 01:57:00;;;;;;;12.53;11.63;;;;;;;16.58;100.00;98447.78;5053770;28;20282;-69
2021/08/13 01:59:28;;;;;;;12.03;11.13;;;;;;;16.73;100.00;98447.72;5053686;28;20227;-70
2021/08/13 02:01:56;;;;;;;12.77;11.67;;;;;;;16.63;100.00;98446.16;5050764;28;20204;-70
2021/08/13 02:04:24;;;;;;;11.47;10.53;;;;;;;16.61;100.00;98436.69;5051746;28;20599;-69
2021/08/13 02:06:53;;;;;;;12.17;11.07;;;;;;;16.55;100.00;98442.81;5049993;28;20212;-68
2021/08/13 02:09:23;;;;;;;12.60;10.73;;;;;;;16.46;100.00;98442.09;5051272;28;20230;-68
2021/08/13 02:11:51;;;;;;;12.20;11.20;;;;;;;16.40;100.00;98446.38;5048258;28;20580;-70
2021/08/13 02:14:19;;;;;;;12.60;11.63;;;;;;;16.44;100.00;98441.47;5051967;28;20229;-70
2021/08/13 02:16:51;;;;;;;13.13;12.03;;;;;;;16.36;100.00;98445.09;5048349;28;20207;-70
2021/08/13 02:19:22;;;;;;;13.50;12.40;;;;;;;16.31;100.00;98439.50;5053841;28;20832;-69
2021/08/13 02:21:50;;;;;;;12.20;11.20;;;;;;;16.27;100.00;98435.53;5055006;28;20489;-70
2021/08/13 02:24:18;;;;;;;12.27;11.27;;;;;;;16.27;100.00;98433.69;5048113;28;20481;-69
2021/08/13 02:26:48;;;;;;;12.50;11.47;;;;;;;16.23;100.00;98427.06;5050231;28;20215;-69
2021/08/13 02:29:16;;;;;;;13.40;12.30;;;;;;;16.17;100.00;98423.31;5048390;28;20235;-69
2021/08/13 02:31:44;;;;;;;12.40;11.40;;;;;;;16.16;100.00;98428.84;5048864;28;20240;-71
2021/08/13 02:34:12;;;;;;;12.40;11.30;;;;;;;16.18;100.00;98424.97;5047678;28;20199;-69
2021/08/13 02:36:43;;;;;;;12.93;11.67;;;;;;;16.17;100.00;98426.00;5053146;28;20607;-70
2021/08/13 02:39:14;;;;;;;12.43;11.20;;;;;;;16.23;100.00;98423.56;5048929;28;20237;-69
2021/08/13 02:41:43;;;;;;;12.90;11.90;;;;;;;16.11;100.00;98421.41;5054011;28;20203;-69
2021/08/13 02:44:13;;;;;;;12.40;11.30;;;;;;;16.09;100.00;98426.09;5053172;28;20602;-69
2021/08/13 02:46:46;;;;;;;12.70;11.73;;;;;;;16.12;100.00;98423.06;5053120;28;20199;-68
2021/08/13 02:49:14;;;;;;;13.30;12.20;;;;;;;16.01;100.00;98420.88;5044698;28;20230;-69
2021/08/13 02:51:43;;;;;;;11.90;10.90;;;;;;;16.02;100.00;98427.88;5040633;28;20199;-68
2021/08/13 02:54:16;;;;;;;13.30;12.13;;;;;;;15.95;100.00;98418.94;5048306;28;20214;-69
2021/08/13 02:56:45;;;;;;;11.57;10.60;;;;;;;15.96;100.00;98418.78;5053753;28;20206;-70
2021/08/13 02:59:18;;;;;;;14.23;13.13;;;;;;;15.90;100.00;98412.31;5048993;28;20230;-69
2021/08/13 03:01:46;;;;;;;12.63;11.37;;;;;;;15.90;100.00;98417.66;5046126;28;20217;-68
2021/08/13 03:04:15;;;;;;;12.03;11.00;;;;;;;15.84;100.00;98412.22;5043424;28;20207;-69
2021/08/13 03:06:44;;;;;;;12.23;11.27;;;;;;;15.83;100.00;98408.72;5049310;28;20662;-69
2021/08/13 03:09:13;;;;;;;12.27;11.27;;;;;;;15.80;100.00;98418.94;5051517;28;20741;-70
2021/08/13 03:11:43;;;;;;;12.97;11.77;;;;;;;15.80;100.00;98417.13;5050803;28;20215;-70
2021/08/13 03:14:11;;;;;;;12.57;11.57;;;;;;;15.82;100.00;98414.25;5052834;28;20788;-70
2021/08/13 03:16:42;;;;;;;13.23;11.93;;;;;;;15.82;100.00;98411.56;5052254;28;20211;-69
2021/08/13 03:19:10;;;;;;;13.43;12.33;;;;;;;15.77;100.00;98404.94;5052712;28;20319;-69
2021/08/13 03:21:39;;;;;;;12.90;11.70;;;;;;;15.82;100.00;98414.25;5054659;28;20670;-69
2021/08/13 03:24:07;;;;;;;12.00;10.77;;;;;;;15.79;100.00;98410.13;5055052;28;20200;-69
2021/08/13 03:26:35;;;;;;;11.93;11.03;;;;;;;15.75;100.00;98406.97;5047536;28;20635;-69
2021/08/13 03:29:03;;;;;;;12.07;11.17;;;;;;;15.71;100.00;98416.38;5047353;28;20485;-69
2021/08/13 03:31:33;;;;;;;12.67;11.50;;;;;;;15.69;100.00;98414.91;5046612;28;20214;-69
2021/08/13 03:34:03;;;;;;;12.23;11.23;;;;;;;15.72;100.00;98415.38;5050999;28;20411;-69
2021/08/13 03:36:31;;;;;;;13.17;12.07;;;;;;;15.70;100.00;98412.06;5052530;28;20204;-69
2021/08/13 03:38:59;;;;;;;13.97;12.63;;;;;;;15.71;100.00;98412.88;5049729;28;20231;-70
2021/08/13 03:41:27;;;;;;;13.33;12.20;;;;;;;15.65;100.00;98413.63;5052672;28;20211;-69
2021/08/13 03:43:55;;;;;;;12.60;11.60;;;;;;;15.64;100.00;98412.81;5057236;28;20229;-69
2021/08/13 03:46:23;;;;;;;12.23;11.33;;;;;;;15.65;100.00;98417.13;5045536;28;20236;-68
2021/08/13 03:48:51;;;;;;;13.83;12.53;;;;;;;15.73;100.00;98411.69;5055028;28;20262;-70
2021/08/13 03:51:20;;;;;;;12.63;11.50;;;;;;;15.73;100.00;98418.88;5046084;28;20683;-69
2021/08/13 03:53:49;;;;;;;13.37;12.23;;;;;;;15.69;100.00;98420.25;5049820;28;20570;-71
2021/08/13 03:56:17;;;;;;;12.30;11.20;;;;;;;15.62;100.00;98425.53;5053812;28;20199;-69
2021/08/13 03:58:45;;;;;;;12.73;11.53;;;;;;;15.58;100.00;98416.22;5053954;28;20218;-70
2021/08/13 04:01:13;;;;;;;13.00;11.90;;;;;;;15.61;100.00;98411.31;5053316;28;20667;-70
2021/08/13 04:03:41;;;;;;;12.83;11.73;;;;;;;15.58;100.00;98416.22;5052608;28;20276;-70
2021/08/13 04:06:09;;;;;;;13.17;11.97;;;;;;;15.57;100.00;98417.25;5048635;28;20222;-69
2021/08/13 04:08:38;;;;;;;13.87;12.50;;;;;;;15.61;100.00;98415.84;5054856;28;20223;-68
2021/08/13 04:11:06;;;;;;;14.67;13.23;;;;;;;15.58;100.00;98417.03;5057253;28;20215;-68
2021/08/13 04:13:34;;;;;;;13.20;12.10;;;;;;;15.61;100.00;98414.00;5053472;28;20299;-69
2021/08/13 04:16:02;;;;;;;13.50;12.43;;;;;;;15.59;100.00;98423.22;5054345;28;20203;-69
2021/08/13 04:18:30;;;;;;;13.67;12.30;;;;;;;15.59;100.00;98420.56;5054456;28;20231;-69
2021/08/13 04:20:58;;;;;;;14.13;12.83;;;;;;;15.67;100.00;98430.28;5058829;28;20681;-69
2021/08/13 04:23:26;;;;;;;12.77;11.70;;;;;;;15.65;100.00;98430.50;5054143;28;20889;-69
2021/08/13 04:25:55;;;;;;;13.63;12.43;;;;;;;15.71;100.00;98420.88;5050183;28;20276;-70
2021/08/13 04:28:23;;;;;;;13.33;12.13;;;;;;;15.87;100.00;98419.84;5053619;28;20202;-68
2021/08/13 04:30:51;;;;;;;13.17;12.10;;;;;;;15.78;100.00;98425.31;5046373;28;20714;-69
2021/08/13 04:33:19;;;;;;;12.67;11.67;;;;;;;15.91;100.00;98421.19;5049425;28;20256;-69
2021/08/13 04:35:47;;;;;;;12.90;11.77;;;;;;;15.96;100.00;98408.09;5047387;28;20212;-69
2021/08/13 04:38:15;;;;;;;11.83;10.83;;;;;;;16.01;100.00;98421.72;5048883;28;20215;-70
2021/08/13 04:40:44;;;;;;;12.23;11.17;;;;;;;15.97;100.00;98436.47;5052061;28;20260;-70
2021/08/13 04:43:13;;;;;;;12.90;11.80;;;;;;;16.01;100.00;98436.91;5054010;28;20216;-70
2021/08/13 04:45:41;;;;;;;14.90;13.63;;;;;;;16.05;100.00;98433.66;5049495;28;20230;-69
2021/08/13 04:48:09;;;;;;;13.87;12.83;;;;;;;16.09;100.00;98441.31;5052534;28;20600;-69
2021/08/13 04:50:37;;;;;;;13.03;11.93;;;;;;;16.13;100.00;98432.75;5052502;28;20210;-70
2021/08/13 04:53:05;;;;;;;13.63;12.53;;;;;;;16.13;100.00;98431.91;5054893;28;20203;-69
2021/08/13 04:55:33;;;;;;;13.13;11.63;;;;;;;16.21;100.00;98447.81;5052172;28;20207;-69
2021/08/13 04:58:01;;;;;;;12.93;11.93;;;;;;;16.37;100.00;98457.44;5050675;28;20203;-69
2021/08/13 05:00:30;;;;;;;13.07;12.00;;;;;;;16.37;100.00;98457.44;5057373;28;20241;-69
2021/08/13 05:02:58;;;;;;;12.23;11.33;;;;;;;16.43;100.00;98456.69;5052129;28;20323;-69
2021/08/13 05:05:27;;;;;;;14.67;13.43;;;;;;;16.45;100.00;98460.00;5051271;28;20202;-69
2021/08/13 05:07:55;;;;;;;13.60;12.40;;;;;;;16.57;100.00;98463.00;5055370;28;20603;-70
2021/08/13 05:10:23;;;;;;;14.23;13.13;;;;;;;16.71;100.00;98466.63;5051472;28;20234;-69
2021/08/13 05:12:51;;;;;;;13.80;12.60;;;;;;;16.84;100.00;98467.75;5047097;28;20203;-68
2021/08/13 05:15:19;;;;;;;13.77;12.37;;;;;;;16.96;100.00;98476.94;5047814;28;20227;-69
2021/08/13 05:17:49;;;;;;;14.50;13.30;;;;;;;16.92;100.00;98481.00;5052761;28;20733;-69
2021/08/13 05:20:18;;;;;;;14.50;13.10;;;;;;;17.04;100.00;98489.34;5050393;28;20215;-69
2021/08/13 05:22:45;;;;;;;14.47;13.37;;;;;;;17.15;100.00;98496.03;5054891;28;20207;-70
2021/08/13 05:25:15;;;;;;;14.37;13.17;;;;;;;17.26;100.00;98482.13;5050141;28;20216;-70
2021/08/13 05:27:43;;;;;;;14.33;13.23;;;;;;;17.42;100.00;98482.84;5050835;28;20219;-68
2021/08/13 05:30:12;;;;;;;14.70;13.60;;;;;;;17.43;100.00;98481.81;5053088;28;20235;-69
2021/08/13 05:32:40;;;;;;;15.57;14.27;;;;;;;17.65;100.00;98469.16;5049672;28;20589;-70
2021/08/13 05:35:11;;;;;;;15.07;13.87;;;;;;;17.77;100.00;98475.59;5047284;28;20250;-70
2021/08/13 05:37:40;;;;;;;14.27;13.07;;;;;;;17.79;100.00;98475.41;5050572;28;20360;-70
2021/08/13 05:40:09;;;;;;;15.13;14.00;;;;;;;18.04;100.00;98472.25;5048786;28;20222;-69
2021/08/13 05:42:38;;;;;;;15.37;14.07;;;;;;;18.11;100.00;98480.31;5049059;28;20307;-70
2021/08/13 05:45:07;;;;;;;16.53;14.00;;;;;;;18.07;100.00;98478.03;5050704;28;20199;-70
2021/08/13 05:47:38;;;;;;;15.70;14.17;;;;;;;18.03;100.00;98487.50;5050048;28;20593;-70
2021/08/13 05:50:07;;;;;;;15.30;14.10;;;;;;;18.09;100.00;98491.25;5052473;28;20223;-69
2021/08/13 05:52:37;;;;;;;14.83;13.43;;;;;;;18.20;100.00;98493.34;5057227;28;20211;-69
2021/08/13 05:55:05;;;;;;;14.63;13.20;;;;;;;18.30;100.00;98487.63;5050723;28;20199;-69
2021/08/13 05:57:33;;;;;;;14.67;13.20;;;;;;;18.12;100.00;98490.00;5051027;28;20203;-69
2021/08/13 06:00:01;;;;;;;14.43;13.00;;;;;;;18.11;100.00;98494.56;5053089;28;20219;-69
2021/08/13 06:02:29;;;;;;;14.27;12.97;;;;;;;18.05;100.00;98504.22;5053095;28;20219;-69
2021/08/13 06:04:57;;;;;;;14.03;13.13;;;;;;;18.02;100.00;98509.19;5050055;28;20208;-70
2021/08/13 06:07:25;;;;;;;15.90;14.47;;;;;;;17.94;100.00;98516.31;5046630;28;20239;-69
2021/08/13 06:09:54;;;;;;;15.67;14.43;;;;;;;17.94;100.00;98524.34;5052436;28;20613;-69
2021/08/13 06:12:22;;;;;;;16.43;14.73;;;;;;;18.07;100.00;98529.00;5050991;28;20214;-69
2021/08/13 06:14:50;;;;;;;15.77;14.37;;;;;;;17.97;100.00;98522.31;5048507;28;20202;-68
2021/08/13 06:17:18;;;;;;;15.50;13.70;;;;;;;17.99;100.00;98514.88;5054640;28;20198;-70
2021/08/13 06:19:46;;;;;;;14.10;12.90;;;;;;;18.04;100.00;98509.81;5047162;28;20234;-70
2021/08/13 06:22:14;;;;;;;14.30;12.97;;;;;;;18.03;100.00;98506.28;5048797;28;20208;-69
2021/08/13 06:24:42;;;;;;;15.30;13.77;;;;;;;17.99;100.00;98502.31;5051903;28;20286;-69
2021/08/13 06:27:12;;;;;;;15.33;13.83;;;;;;;18.07;100.00;98507.53;5049705;28;20262;-70
2021/08/13 06:29:40;;;;;;;14.87;13.60;;;;;;;18.29;100.00;98503.91;5051958;28;20222;-69
2021/08/13 06:32:08;;;;;;;14.73;13.53;;;;;;;18.14;100.00;98530.88;5052739;28;20698;-69
2021/08/13 06:34:36;;;;;;;14.90;13.57;;;;;;;18.13;100.00;98567.59;5051101;28;20208;-70
2021/08/13 06:37:04;;;;;;;14.77;13.50;;;;;;;18.11;100.00;98558.94;5050085;28;20203;-70
2021/08/13 06:39:32;;;;;;;14.97;13.87;;;;;;;18.13;100.00;98545.31;5048851;28;20474;-69
2021/08/13 06:42:07;;;;;;;16.43;14.93;;;;;;;17.99;100.00;98565.84;5047997;28;20210;-70
2021/08/13 06:44:36;;;;;;;16.13;14.83;;;;;;;18.01;100.00;98574.56;5049149;28;20439;-69
2021/08/13 06:47:04;;;;;;;15.40;13.97;;;;;;;17.82;100.00;98568.03;5052772;28;20233;-70
2021/08/13 06:49:32;;;;;;;17.00;15.27;;;;;;;17.78;100.00;98573.75;5047334;28;20218;-69
2021/08/13 06:52:02;;;;;;;16.73;15.33;;;;;;;17.78;100.00;98564.91;5054172;28;20738;-70
2021/08/13 06:54:30;;;;;;;16.47;15.03;;;;;;;17.74;100.00;98551.06;5050238;28;20596;-70
2021/08/13 06:56:58;;;;;;;17.03;15.53;;;;;;;17.63;100.00;98536.38;5047540;28;20208;-69
2021/08/13 06:59:27;;;;;;;19.00;16.53;;;;;;;17.58;100.00;98533.44;5052964;28;20682;-70
2021/08/13 07:01:57;;;;;;;17.60;16.03;;;;;;;17.55;100.00;98514.25;5052014;28;20210;-70
2021/08/13 07:04:25;;;;;;;18.57;16.73;;;;;;;17.53;100.00;98516.31;5048737;28;20297;-69
2021/08/13 07:06:53;;;;;;;20.27;18.13;;;;;;;17.53;100.00;98511.75;5053287;28;20223;-70
2021/08/13 07:09:21;;;;;;;19.67;17.67;;;;;;;17.60;100.00;98511.81;5046350;28;20231;-68
2021/08/13 07:11:49;;;;;;;19.43;17.63;;;;;;;17.70;100.00;98514.13;5046887;28;20202;-69
2021/08/13 07:14:17;;;;;;;19.80;17.87;;;;;;;17.75;100.00;98511.69;5045700;28;20386;-70
2021/08/13 07:16:45;;;;;;;20.03;17.90;;;;;;;17.83;100.00;98516.88;5052848;28;20199;-68
2021/08/13 07:19:14;;;;;;;19.70;17.70;;;;;;;17.87;100.00;98520.81;5045854;28;20334;-70
2021/08/13 07:21:42;;;;;;;19.80;18.23;;;;;;;17.99;100.00;98530.97;5053322;28;20211;-69
2021/08/13 07:24:10;;;;;;;18.73;16.87;;;;;;;18.02;100.00;98538.69;5048998;28;20555;-70
2021/08/13 07:26:38;;;;;;;18.67;16.77;;;;;;;18.01;100.00;98535.16;5051897;28;20216;-69
2021/08/13 07:29:06;;;;;;;17.87;16.17;;;;;;;18.11;100.00;98534.78;5053865;28;20227;-70
2021/08/13 07:31:34;;;;;;;17.53;15.80;;;;;;;18.36;100.00;98531.56;5053644;28;20211;-70
2021/08/13 07:34:02;;;;;;;18.83;17.07;;;;;;;18.50;100.00;98535.97;5057083;28;20202;-69
2021/08/13 07:36:31;;;;;;;17.73;16.00;;;;;;;18.68;100.00;98534.53;5049253;28;20199;-70
2021/08/13 07:39:00;;;;;;;17.67;16.23;;;;;;;18.95;100.00;98521.16;5055795;28;20211;-69
2021/08/13 07:41:28;;;;;;;18.27;16.60;;;;;;;19.17;100.00;98518.31;5051554;28;20208;-70
2021/08/13 07:43:55;;;;;;;18.17;16.57;;;;;;;19.36;100.00;98516.66;5050533;28;20207;-70
2021/08/13 07:46:24;;;;;;;18.30;16.70;;;;;;;19.44;100.00;98524.50;5054986;28;20230;-69
2021/08/13 07:48:52;;;;;;;18.87;17.10;;;;;;;19.58;100.00;98525.31;5049329;28;20715;-69
2021/08/13 07:51:20;;;;;;;18.13;16.27;;;;;;;19.60;100.00;98515.19;5054595;28;20208;-68
2021/08/13 07:53:50;;;;;;;17.70;16.37;;;;;;;19.54;100.00;98513.34;5050419;28;20199;-70
2021/08/13 07:56:18;;;;;;;17.50;15.93;;;;;;;19.60;100.00;98517.88;5051705;28;20776;-70
2021/08/13 07:58:46;;;;;;;18.30;16.77;;;;;;;19.74;100.00;98526.72;5056638;28;20280;-69
2021/08/13 08:01:14;;;;;;;18.77;16.77;;;;;;;19.87;100.00;98525.84;5050823;28;20230;-70
2021/08/13 08:03:42;;;;;;;23.77;17.47;;;;;;;19.99;100.00;98522.53;5058559;28;20217;-69
2021/08/13 08:06:10;;;;;;;17.33;15.83;;;;;;;20.31;100.00;98523.44;5047976;28;20298;-70
2021/08/13 08:08:38;;;;;;;17.10;15.30;;;;;;;20.50;100.00;98535.16;5053939;28;20231;-69
2021/08/13 08:11:07;;;;;;;17.63;16.13;;;;;;;20.72;100.00;98536.69;5052641;28;20241;-70
2021/08/13 08:13:35;;;;;;;18.57;16.93;;;;;;;20.66;100.00;98539.19;5052422;28;20207;-70
2021/08/13 08:16:03;;;;;;;16.73;15.27;;;;;;;20.82;100.00;98529.81;5054301;28;20210;-69
2021/08/13 08:18:31;;;;;;;16.90;15.67;;;;;;;21.11;100.00;98543.69;5049486;28;20223;-71
2021/08/13 08:20:59;;;;;;;17.07;15.60;;;;;;;21.40;100.00;98545.94;5055072;28;20258;-69
2021/08/13 08:23:27;;;;;;;17.23;15.17;;;;;;;21.39;100.00;98549.69;5053859;28;20596;-70
2021/08/13 08:25:55;;;;;;;15.07;13.77;;;;;;;21.66;100.00;98544.91;5055098;28;20293;-69
2021/08/13 08:28:24;;;;;;;16.13;14.80;;;;;;;21.98;100.00;98560.16;5049194;28;20312;-69
2021/08/13 08:30:52;;;;;;;15.03;13.57;;;;;;;22.09;100.00;98566.66;5050675;28;20416;-69
2021/08/13 08:33:20;;;;;;;15.27;14.00;;;;;;;22.28;100.00;98564.75;5059058;28;20203;-69
2021/08/13 08:35:49;;;;;;;16.13;14.70;;;;;;;22.19;100.00;98564.25;5046849;28;20454;-70
2021/08/13 08:38:17;;;;;;;15.77;14.27;;;;;;;22.47;100.00;98559.38;5056136;28;20199;-70
2021/08/13 08:40:45;;;;;;;13.33;12.33;;;;;;;22.56;100.00;98563.41;5056296;28;20206;-70
2021/08/13 08:43:12;;;;;;;12.87;11.60;;;;;;;22.87;100.00;98566.09;5053291;28;20204;-70
2021/08/13 08:45:42;;;;;;;12.87;11.77;;;;;;;23.26;100.00;98553.88;5056373;28;21353;-69
2021/08/13 08:48:12;;;;;;;13.93;12.63;;;;;;;23.17;100.00;98557.97;5054062;28;20227;-68
2021/08/13 08:50:42;;;;;;;13.93;12.53;;;;;;;23.47;100.00;98564.38;5046848;28;20663;-70
2021/08/13 08:53:15;;;;;;;13.80;12.67;;;;;;;23.82;95.71;98560.81;5048390;28;20202;-71
2021/08/13 08:55:43;;;;;;;14.00;12.70;;;;;;;23.67;98.26;98556.69;5052742;28;20203;-70
2021/08/13 08:58:12;;;;;;;12.17;11.13;;;;;;;23.97;95.26;98561.16;5053444;28;20218;-69
2021/08/13 09:00:40;;;;;;;11.90;10.90;;;;;;;24.27;93.00;98564.78;5055029;28;20237;-70
2021/08/13 09:03:10;;;;;;;12.77;11.67;;;;;;;24.38;89.77;98572.03;5048981;28;20623;-69
2021/08/13 09:05:39;;;;;;;12.53;11.43;;;;;;;24.60;88.94;98565.13;5052156;28;20207;-71
2021/08/13 09:08:07;;;;;;;11.27;10.33;;;;;;;24.92;84.36;98568.19;5055448;28;20231;-70
2021/08/13 09:10:35;;;;;;;10.93;9.97;;;;;;;24.89;84.95;98567.88;5049320;28;20238;-71
2021/08/13 09:13:04;;;;;;;11.60;10.40;;;;;;;25.07;83.31;98570.34;5057018;28;20644;-70
2021/08/13 09:15:34;;;;;;;11.33;10.43;;;;;;;25.25;80.48;98573.91;5050054;28;20204;-70
2021/08/13 09:18:17;;;;;;;11.03;10.13;;;;;;;25.77;77.30;98566.56;5048521;28;20201;-71
2021/08/13 09:20:49;;;;;;;10.67;9.87;;;;;;;25.71;77.56;98569.22;5051581;28;20200;-71
2021/08/13 09:23:29;;;;;;;10.50;9.60;;;;;;;25.90;77.16;98581.69;5047129;28;20574;-71
2021/08/13 09:25:58;;;;;;;10.67;9.70;;;;;;;26.00;73.11;98574.50;5049409;28;20341;-70
2021/08/13 09:28:48;;;;;;;10.97;9.97;;;;;;;25.99;71.87;98572.03;5052354;28;20216;-71
2021/08/13 09:31:19;;;;;;;11.77;10.70;;;;;;;25.98;73.11;98571.22;5043587;28;20704;-70
2021/08/13 09:33:50;;;;;;;11.00;10.10;;;;;;;25.95;73.21;98579.03;5051915;28;20691;-69
2021/08/13 09:36:19;;;;;;;10.27;9.43;;;;;;;25.85;75.32;98571.56;5049483;28;20633;-71
2021/08/13 09:38:49;;;;;;;11.67;10.33;;;;;;;25.86;73.88;98579.47;5052848;28;20226;-70
2021/08/13 09:41:19;;;;;;;10.80;9.77;;;;;;;26.01;73.28;98580.75;5051997;28;20219;-70
2021/08/13 09:43:54;;;;;;;9.93;9.30;;;;;;;26.46;71.33;98578.06;5047310;28;20580;-70
2021/08/13 09:46:23;;;;;;;10.50;9.70;;;;;;;26.57;70.30;98577.13;5057490;28;20327;-69
2021/08/13 09:48:52;;;;;;;11.20;10.40;;;;;;;26.52;69.11;98566.19;5056399;28;20743;-69
2021/08/13 09:51:31;;;;;;;10.37;9.10;;;;;;;26.61;69.96;98577.41;5052829;28;20211;-69
2021/08/13 09:54:00;;;;;;;10.83;9.80;;;;;;;26.55;71.81;98580.06;5053393;28;20577;-70
2021/08/13 09:56:29;;;;;;;10.33;9.47;;;;;;;26.69;68.93;98571.50;5055282;28;20203;-69
2021/08/13 09:59:14;;;;;;;10.10;9.37;;;;;;;26.61;67.84;98583.69;5051076;28;20485;-69
2021/08/13 10:01:43;;;;;;;10.37;9.27;;;;;;;26.92;66.47;98578.59;5051356;28;20210;-71
2021/08/13 10:04:13;;;;;;;10.70;9.63;;;;;;;26.83;65.37;98561.06;5053219;28;20512;-70
2021/08/13 10:06:42;;;;;;;10.67;9.73;;;;;;;26.47;69.70;98563.38;5049995;28;20211;-71
2021/08/13 10:09:23;;;;;;;10.43;9.47;;;;;;;26.56;69.15;98570.03;5049017;28;20234;-70
2021/08/13 10:11:58;;;;;;;10.43;9.53;;;;;;;26.55;69.00;98563.75;5048028;28;20202;-71
2021/08/13 10:14:32;;;;;;;10.00;9.20;;;;;;;26.82;67.06;98564.84;5051097;28;20203;-70
2021/08/13 10:17:10;;;;;;;9.70;8.90;;;;;;;27.21;63.93;98559.25;5049991;28;20921;-70
2021/08/13 10:19:41;;;;;;;10.30;9.33;;;;;;;27.23;63.65;98569.88;5051623;28;20226;-69
2021/08/13 10:22:09;;;;;;;9.57;8.97;;;;;;;27.44;63.40;98563.50;5052626;28;20642;-70
2021/08/13 10:24:38;;;;;;;10.10;9.17;;;;;;;27.44;62.35;98571.66;5051837;28;20284;-71
2021/08/13 10:27:07;;;;;;;9.97;8.97;;;;;;;27.92;60.76;98562.75;5045865;28;20723;-70
2021/08/13 10:29:35;;;;;;;10.30;9.50;;;;;;;28.25;60.06;98563.47;5051530;28;20235;-71
2021/08/13 10:32:04;;;;;;;10.90;10.00;;;;;;;28.39;58.72;98552.06;5046937;28;20203;-70
2021/08/13 10:34:32;;;;;;;9.97;8.97;;;;;;;28.48;58.49;98555.91;5053576;28;20206;-70
2021/08/13 10:37:05;;;;;;;9.07;8.33;;;;;;;28.35;59.51;98550.97;5051638;28;20255;-70
2021/08/13 10:39:35;;;;;;;10.23;9.47;;;;;;;28.48;60.31;98545.00;5050398;28;20239;-70
2021/08/13 10:42:06;;;;;;;10.30;9.43;;;;;;;28.40;60.49;98545.53;5047626;28;20210;-71
2021/08/13 10:44:37;;;;;;;10.13;9.13;;;;;;;28.48;58.33;98550.44;5048350;28;20212;-69
2021/08/13 10:47:10;;;;;;;10.70;9.60;;;;;;;28.79;54.49;98547.81;5050580;28;20511;-70
2021/08/13 10:49:39;;;;;;;10.23;9.43;;;;;;;29.12;51.73;98550.28;5051048;28;20227;-71
2021/08/13 10:52:08;;;;;;;10.90;9.83;;;;;;;28.90;54.33;98551.38;5048064;28;20713;-70
2021/08/13 10:54:40;;;;;;;9.83;9.03;;;;;;;29.98;48.62;98563.31;5050084;28;20206;-70
2021/08/13 10:57:09;;;;;;;10.33;9.37;;;;;;;30.15;48.48;98552.06;5046949;28;20595;-70
2021/08/13 10:59:56;;;;;;;11.03;10.07;;;;;;;29.57;51.27;98554.13;5052085;28;20228;-71
2021/08/13 11:02:24;;;;;;;10.23;9.37;;;;;;;29.27;52.55;98549.47;5047352;28;20213;-71
2021/08/13 11:04:53;;;;;;;9.70;9.00;;;;;;;29.03;54.94;98541.84;5044795;28;20731;-69
2021/08/13 11:08:00;;;;;;;9.80;9.03;;;;;;;29.55;54.97;98547.28;5050525;28;20201;-69
2021/08/13 11:11:01;;;;;;;9.60;8.90;;;;;;;30.22;49.81;98543.56;5051577;28;20331;-71
2021/08/13 11:13:36;;;;;;;10.03;9.20;;;;;;;30.08;49.62;98540.59;4982015;28;20219;-71
2021/08/13 11:16:04;;;;;;;9.60;8.87;;;;;;;30.09;50.05;98528.56;4987030;28;20373;-70
2021/08/13 11:18:35;;;;;;;10.20;9.30;;;;;;;29.75;51.71;98532.78;5020367;28;20230;-70
2021/08/13 11:21:05;;;;;;;10.20;9.30;;;;;;;30.37;50.21;98529.00;5051453;28;20230;-70
2021/08/13 11:23:57;;;;;;;9.93;9.13;;;;;;;30.63;48.56;98537.88;5053123;28;20210;-70